createdAt,value
2018-08-12T00:00:54.744Z,0.00
2018-08-12T00:01:54.750Z,0.00
2018-08-12T00:02:54.912Z,0.00
2018-08-12T00:04:15.759Z,0.00
2018-08-12T00:04:54.725Z,0.00
2018-08-12T00:05:54.736Z,0.00
2018-08-12T00:06:54.722Z,0.00
2018-08-12T00:07:54.720Z,0.00
2018-08-12T00:08:54.724Z,0.00
2018-08-12T00:10:15.718Z,0.00
2018-08-12T00:10:54.710Z,0.00
2018-08-12T00:11:54.712Z,0.00
2018-08-12T00:12:54.698Z,0.00
2018-08-12T00:13:54.694Z,0.00
2018-08-12T00:14:54.690Z,0.00
2018-08-12T00:16:15.693Z,0.00
2018-08-12T00:16:54.687Z,0.00
2018-08-12T00:17:54.681Z,0.00
2018-08-12T00:18:54.678Z,0.00
2018-08-12T00:19:54.666Z,0.00
2018-08-12T00:20:54.668Z,0.00
2018-08-12T00:22:15.669Z,0.00
2018-08-12T00:22:54.673Z,0.00
2018-08-12T00:23:54.655Z,0.00
2018-08-12T00:24:54.853Z,0.00
2018-08-12T00:25:54.652Z,0.00
2018-08-12T00:26:54.645Z,0.00
2018-08-12T00:28:15.646Z,0.00
2018-08-12T00:28:54.647Z,0.00
2018-08-12T00:29:54.633Z,0.00
2018-08-12T00:30:54.644Z,0.00
2018-08-12T00:31:54.629Z,0.00
2018-08-12T00:32:54.624Z,0.00
2018-08-12T00:34:15.626Z,0.00
2018-08-12T00:34:54.613Z,0.00
2018-08-12T00:35:54.611Z,0.00
2018-08-12T00:36:54.606Z,0.00
2018-08-12T00:37:54.601Z,0.00
2018-08-12T00:38:54.607Z,0.00
2018-08-12T00:40:15.611Z,0.00
2018-08-12T00:40:54.599Z,0.00
2018-08-12T00:41:54.584Z,0.00
2018-08-12T00:42:54.594Z,0.00
2018-08-12T00:43:54.581Z,0.00
2018-08-12T00:44:54.572Z,0.00
2018-08-12T00:46:15.576Z,0.00
2018-08-12T00:46:54.566Z,0.00
2018-08-12T00:47:54.565Z,0.00
2018-08-12T00:48:54.605Z,0.00
2018-08-12T00:49:54.551Z,0.00
2018-08-12T00:50:54.554Z,0.00
2018-08-12T00:52:15.566Z,0.00
2018-08-12T00:52:54.542Z,0.00
2018-08-12T00:53:54.548Z,0.00
2018-08-12T00:54:54.532Z,0.00
2018-08-12T00:55:54.526Z,0.00
2018-08-12T00:56:54.525Z,0.00
2018-08-12T00:58:15.535Z,0.00
2018-08-12T00:58:54.666Z,0.00
2018-08-12T00:59:54.523Z,0.00
2018-08-12T01:00:54.514Z,0.00
2018-08-12T01:01:54.521Z,0.00
2018-08-12T01:02:54.510Z,0.00
2018-08-12T01:04:15.513Z,0.00
2018-08-12T01:04:54.495Z,0.00
2018-08-12T01:05:54.492Z,0.00
2018-08-12T01:06:54.487Z,0.00
2018-08-12T01:07:54.486Z,0.00
2018-08-12T01:08:54.481Z,0.00
2018-08-12T01:10:15.489Z,0.00
2018-08-12T01:10:54.473Z,0.00
2018-08-12T01:11:54.471Z,0.00
2018-08-12T01:12:54.470Z,0.00
2018-08-12T01:13:54.459Z,0.00
2018-08-12T01:14:54.477Z,0.00
2018-08-12T01:16:15.461Z,0.00
2018-08-12T01:16:54.455Z,0.00
2018-08-12T01:17:54.449Z,0.00
2018-08-12T01:18:54.449Z,0.00
2018-08-12T01:19:54.456Z,0.00
2018-08-12T01:20:54.440Z,0.00
2018-08-12T01:22:15.440Z,0.00
2018-08-12T01:22:54.423Z,0.00
2018-08-12T01:23:54.425Z,0.00
2018-08-12T01:24:54.418Z,0.00
2018-08-12T01:25:54.417Z,0.00
2018-08-12T01:26:54.457Z,0.00
2018-08-12T01:28:15.417Z,0.00
2018-08-12T01:28:54.407Z,0.00
2018-08-12T01:29:54.399Z,0.00
2018-08-12T01:30:54.410Z,0.00
2018-08-12T02:04:07.640Z,0.00
2018-08-12T02:05:07.609Z,0.00
2018-08-12T02:07:00.543Z,0.00
2018-08-12T02:08:00.503Z,0.00
2018-08-12T02:09:53.400Z,0.00
2018-08-12T02:10:53.385Z,0.00
2018-08-12T02:12:46.350Z,0.00
2018-08-12T02:13:46.313Z,0.00
2018-08-12T02:15:39.262Z,0.00
2018-08-12T02:16:39.244Z,0.00
2018-08-12T02:18:32.153Z,0.00
2018-08-12T02:19:32.145Z,0.00
2018-08-12T02:21:25.102Z,0.00
2018-08-12T02:22:25.079Z,0.00
2018-08-12T02:24:18.010Z,0.00
2018-08-12T02:25:17.999Z,0.00
2018-08-12T02:27:10.960Z,0.00
2018-08-12T02:28:10.887Z,0.00
2018-08-12T02:30:03.822Z,0.00
2018-08-12T02:31:03.808Z,0.00
2018-08-12T02:32:56.744Z,0.00
2018-08-12T02:33:56.722Z,0.00
2018-08-12T02:35:49.633Z,0.00
2018-08-12T02:36:49.617Z,0.00
2018-08-12T02:38:42.527Z,0.00
2018-08-12T02:39:42.518Z,0.00
2018-08-12T02:41:35.476Z,0.00
2018-08-12T02:42:35.457Z,0.00
2018-08-12T02:44:28.587Z,0.00
2018-08-12T02:45:28.581Z,0.00
2018-08-12T02:47:21.508Z,0.00
2018-08-12T02:48:21.479Z,0.00
2018-08-12T02:50:14.474Z,0.00
2018-08-12T02:51:14.455Z,0.00
2018-08-12T02:53:07.384Z,0.00
2018-08-12T02:54:07.365Z,0.00
2018-08-12T02:56:00.352Z,0.00
2018-08-12T02:57:00.322Z,0.00
2018-08-12T02:58:53.246Z,0.00
2018-08-12T02:59:53.232Z,0.00
2018-08-12T03:01:46.150Z,0.00
2018-08-12T03:02:46.133Z,0.00
2018-08-12T03:04:39.115Z,0.00
2018-08-12T03:05:39.086Z,0.00
2018-08-12T03:07:31.991Z,0.00
2018-08-12T03:08:31.979Z,0.00
2018-08-12T03:10:24.914Z,0.00
2018-08-12T03:11:24.891Z,0.00
2018-08-12T03:13:17.876Z,0.00
2018-08-12T03:14:17.845Z,0.00
2018-08-12T03:16:10.785Z,0.00
2018-08-12T03:17:10.763Z,0.00
2018-08-12T03:19:03.681Z,0.00
2018-08-12T03:20:03.671Z,0.00
2018-08-12T03:21:56.631Z,0.00
2018-08-12T03:22:56.608Z,0.00
2018-08-12T03:24:49.535Z,0.00
2018-08-12T03:25:49.523Z,0.00
2018-08-12T03:27:42.454Z,0.00
2018-08-12T03:28:42.430Z,0.00
2018-08-12T03:30:35.377Z,0.00
2018-08-12T03:31:35.358Z,0.00
2018-08-12T03:33:28.323Z,0.00
2018-08-12T03:34:28.300Z,0.00
2018-08-12T03:36:21.292Z,4.00
2018-08-12T03:37:21.279Z,4.00
2018-08-12T03:39:14.219Z,4.00
2018-08-12T03:40:14.201Z,4.00
2018-08-12T03:42:07.126Z,4.00
2018-08-12T03:43:07.104Z,4.00
2018-08-12T03:45:00.046Z,8.00
2018-08-12T03:46:00.031Z,8.00
2018-08-12T03:47:52.931Z,12.00
2018-08-12T03:48:52.925Z,12.00
2018-08-12T03:50:45.815Z,20.00
2018-08-12T03:51:45.805Z,24.00
2018-08-12T03:53:38.735Z,32.00
2018-08-12T03:54:38.715Z,32.00
2018-08-12T03:56:31.665Z,44.00
2018-08-12T03:57:31.638Z,52.00
2018-08-12T03:59:24.571Z,68.00
2018-08-12T04:00:24.554Z,76.00
2018-08-12T04:02:17.512Z,100.00
2018-08-12T04:03:17.445Z,112.00
2018-08-12T04:05:10.376Z,140.00
2018-08-12T04:06:10.366Z,156.00
2018-08-12T04:08:03.281Z,200.00
2018-08-12T04:09:03.260Z,224.00
2018-08-12T04:10:56.157Z,276.00
2018-08-12T04:11:56.146Z,312.00
2018-08-12T04:13:49.281Z,380.00
2018-08-12T04:14:49.273Z,420.00
2018-08-12T04:16:42.228Z,500.00
2018-08-12T04:17:42.213Z,548.00
2018-08-12T04:19:35.158Z,644.00
2018-08-12T04:20:35.131Z,696.00
2018-08-12T04:22:28.076Z,808.00
2018-08-12T04:23:28.046Z,868.00
2018-08-12T04:25:20.985Z,988.00
2018-08-12T04:26:20.975Z,1052.00
2018-08-12T04:28:13.905Z,1164.00
2018-08-12T04:29:13.885Z,1224.00
2018-08-12T04:31:06.797Z,1344.00
2018-08-12T04:32:06.784Z,1408.00
2018-08-12T04:33:59.757Z,1524.00
2018-08-12T04:34:59.732Z,1588.00
2018-08-12T04:36:52.641Z,1704.00
2018-08-12T04:37:52.629Z,1764.00
2018-08-12T04:39:45.558Z,1892.00
2018-08-12T04:40:45.539Z,1940.00
2018-08-12T04:42:38.513Z,2064.00
2018-08-12T04:43:38.492Z,2132.00
2018-08-12T04:45:31.392Z,2244.00
2018-08-12T04:46:31.384Z,2304.00
2018-08-12T04:48:24.295Z,2384.00
2018-08-12T04:49:24.273Z,2444.00
2018-08-12T04:51:17.200Z,2552.00
2018-08-12T04:52:17.207Z,2608.00
2018-08-12T04:54:10.091Z,2716.00
2018-08-12T04:55:10.069Z,2772.00
2018-08-12T04:57:02.974Z,2880.00
2018-08-12T04:58:02.968Z,2940.00
2018-08-12T04:59:55.872Z,3044.00
2018-08-12T05:00:55.848Z,3096.00
2018-08-12T05:02:48.788Z,3200.00
2018-08-12T05:03:48.767Z,3252.00
2018-08-12T05:05:41.730Z,3360.00
2018-08-12T05:06:41.717Z,3412.00
2018-08-12T05:08:34.652Z,3520.00
2018-08-12T05:09:34.630Z,3568.00
2018-08-12T05:11:27.533Z,3664.00
2018-08-12T05:12:27.525Z,3712.00
2018-08-12T05:14:20.432Z,3816.00
2018-08-12T05:15:20.413Z,3864.00
2018-08-12T05:17:13.340Z,3948.00
2018-08-12T05:18:13.329Z,4004.00
2018-08-12T05:20:06.247Z,4100.00
2018-08-12T05:21:06.217Z,4132.00
2018-08-12T05:22:59.133Z,4232.00
2018-08-12T05:23:59.109Z,4280.00
2018-08-12T05:25:52.044Z,4352.00
2018-08-12T05:26:52.038Z,4412.00
2018-08-12T05:28:44.960Z,4484.00
2018-08-12T05:29:44.945Z,4536.00
2018-08-12T05:31:37.869Z,4612.00
2018-08-12T05:32:37.848Z,4632.00
2018-08-12T05:34:30.765Z,4744.00
2018-08-12T05:35:30.746Z,4824.00
2018-08-12T05:36:30.761Z,4872.00
2018-08-12T05:37:30.745Z,4932.00
2018-08-12T05:38:30.736Z,4968.00
2018-08-12T05:39:30.734Z,4996.00
2018-08-12T05:40:30.729Z,5068.00
2018-08-12T05:41:30.732Z,5128.00
2018-08-12T05:42:30.727Z,5172.00
2018-08-12T05:43:30.732Z,5212.00
2018-08-12T05:44:30.721Z,5268.00
2018-08-12T05:45:30.714Z,5312.00
2018-08-12T05:46:30.756Z,5352.00
2018-08-12T05:47:30.713Z,5400.00
2018-08-12T05:48:30.714Z,5448.00
2018-08-12T05:49:30.734Z,5492.00
2018-08-12T05:50:30.700Z,5544.00
2018-08-12T05:51:30.792Z,5588.00
2018-08-12T05:52:30.692Z,5632.00
2018-08-12T05:53:30.689Z,5692.00
2018-08-12T05:54:30.686Z,5736.00
2018-08-12T05:55:30.682Z,5800.00
2018-08-12T05:56:30.725Z,5840.00
2018-08-12T05:57:30.734Z,5848.00
2018-08-12T05:58:30.694Z,5944.00
2018-08-12T05:59:30.693Z,5972.00
2018-08-12T06:00:30.699Z,6040.00
2018-08-12T06:01:30.702Z,6088.00
2018-08-12T06:02:30.696Z,6136.00
2018-08-12T06:03:30.692Z,6188.00
2018-08-12T06:04:30.693Z,6228.00
2018-08-12T06:05:30.688Z,6288.00
2018-08-12T06:06:30.692Z,6332.00
2018-08-12T06:07:30.676Z,6372.00
2018-08-12T06:08:30.677Z,6424.00
2018-08-12T06:09:30.654Z,6460.00
2018-08-12T06:10:30.668Z,6488.00
2018-08-12T06:11:30.671Z,6556.00
2018-08-12T06:12:30.675Z,6588.00
2018-08-12T06:13:30.682Z,6628.00
2018-08-12T06:14:30.647Z,6668.00
2018-08-12T06:15:30.655Z,6712.00
2018-08-12T06:16:30.627Z,6748.00
2018-08-12T06:17:30.689Z,6792.00
2018-08-12T06:18:30.622Z,6824.00
2018-08-12T06:19:30.679Z,6864.00
2018-08-12T06:20:30.621Z,6896.00
2018-08-12T06:21:30.616Z,6932.00
2018-08-12T06:22:30.614Z,6972.00
2018-08-12T06:23:30.612Z,7008.00
2018-08-12T06:24:30.607Z,7044.00
2018-08-12T06:25:30.630Z,7076.00
2018-08-12T06:26:30.606Z,7116.00
2018-08-12T06:27:30.605Z,7888.00
2018-08-12T06:28:30.631Z,7916.00
2018-08-12T06:29:30.605Z,7956.00
2018-08-12T06:30:30.601Z,8008.00
2018-08-12T06:31:30.649Z,8040.00
2018-08-12T06:32:30.595Z,8080.00
2018-08-12T06:33:30.592Z,8112.00
2018-08-12T06:34:30.615Z,8156.00
2018-08-12T06:35:30.584Z,8180.00
2018-08-12T06:36:30.585Z,8268.00
2018-08-12T06:37:30.587Z,8316.00
2018-08-12T06:38:30.583Z,8344.00
2018-08-12T06:39:30.579Z,8380.00
2018-08-12T06:40:30.581Z,8408.00
2018-08-12T06:41:30.586Z,8452.00
2018-08-12T06:42:30.581Z,8464.00
2018-08-12T06:43:30.625Z,8492.00
2018-08-12T06:44:30.574Z,8524.00
2018-08-12T06:45:30.573Z,8536.00
2018-08-12T06:46:30.569Z,8564.00
2018-08-12T06:47:30.570Z,8584.00
2018-08-12T06:48:30.561Z,8624.00
2018-08-12T06:49:30.609Z,8656.00
2018-08-12T06:50:30.565Z,8684.00
2018-08-12T06:51:30.564Z,8700.00
2018-08-12T06:52:30.562Z,8724.00
2018-08-12T06:53:30.562Z,8684.00
2018-08-12T06:54:30.580Z,8712.00
2018-08-12T06:55:30.597Z,8760.00
2018-08-12T06:56:30.565Z,8808.00
2018-08-12T06:57:30.584Z,8888.00
2018-08-12T06:58:30.601Z,8920.00
2018-08-12T06:59:30.591Z,8960.00
2018-08-12T07:00:30.598Z,8944.00
2018-08-12T07:01:30.550Z,9000.00
2018-08-12T07:02:30.547Z,9076.00
2018-08-12T07:03:30.553Z,9108.00
2018-08-12T07:04:30.556Z,9152.00
2018-08-12T07:05:30.547Z,9176.00
2018-08-12T07:06:30.548Z,9220.00
2018-08-12T07:07:30.546Z,9236.00
2018-08-12T07:08:30.547Z,9272.00
2018-08-12T07:09:30.547Z,9296.00
2018-08-12T07:10:30.552Z,9332.00
2018-08-12T07:11:30.546Z,9352.00
2018-08-12T07:12:30.544Z,9396.00
2018-08-12T07:13:30.560Z,9420.00
2018-08-12T07:14:30.545Z,9444.00
2018-08-12T07:15:30.546Z,9460.00
2018-08-12T07:16:30.544Z,9484.00
2018-08-12T07:17:30.548Z,9568.00
2018-08-12T07:18:30.545Z,9876.00
2018-08-12T07:19:30.556Z,10268.00
2018-08-12T07:20:30.557Z,11156.00
2018-08-12T07:21:30.561Z,12232.00
2018-08-12T07:22:30.544Z,22624.00
2018-08-12T07:23:30.547Z,41344.00
2018-08-12T07:24:30.543Z,48064.00
2018-08-12T07:25:30.559Z,48960.00
2018-08-12T07:26:30.552Z,48096.00
2018-08-12T07:27:30.560Z,48768.00
2018-08-12T07:28:30.576Z,51520.00
2018-08-12T07:29:31.243Z,53472.00
2018-08-12T07:30:30.567Z,55424.00
2018-08-12T07:31:30.563Z,55392.00
2018-08-12T07:32:30.571Z,55840.00
2018-08-12T07:33:30.576Z,60640.00
2018-08-12T07:34:30.583Z,62944.00
2018-08-12T07:35:30.591Z,65472.00
2018-08-12T07:36:30.596Z,63584.00
2018-08-12T07:37:30.616Z,62432.00
2018-08-12T07:38:30.617Z,63232.00
2018-08-12T07:39:30.619Z,62080.00
2018-08-12T07:40:30.632Z,62912.00
2018-08-12T07:41:30.635Z,60416.00
2018-08-12T07:42:30.651Z,65952.00
2018-08-12T07:43:30.656Z,68064.00
2018-08-12T07:44:30.668Z,70720.00
2018-08-12T07:45:30.676Z,70880.00
2018-08-12T07:46:30.687Z,70528.00
2018-08-12T07:47:30.694Z,64320.00
2018-08-12T07:48:30.708Z,68384.00
2018-08-12T07:49:30.731Z,71072.00
2018-08-12T07:50:30.730Z,70432.00
2018-08-12T07:51:30.736Z,69408.00
2018-08-12T07:52:30.743Z,73280.00
2018-08-12T07:53:30.775Z,74304.00
2018-08-12T07:54:30.822Z,72064.00
2018-08-12T07:55:30.839Z,73376.00
2018-08-12T07:56:30.793Z,76672.00
2018-08-12T07:57:30.875Z,77248.00
2018-08-12T07:58:30.872Z,76960.00
2018-08-12T07:59:30.826Z,73664.00
2018-08-12T08:00:30.838Z,75872.00
2018-08-12T08:01:30.851Z,73664.00
2018-08-12T08:02:30.899Z,73504.00
2018-08-12T08:03:30.900Z,71456.00
2018-08-12T08:04:30.894Z,72480.00
2018-08-12T08:05:30.906Z,72352.00
2018-08-12T08:06:30.922Z,74688.00
2018-08-12T08:07:30.935Z,76512.00
2018-08-12T08:08:30.943Z,77632.00
2018-08-12T08:09:30.965Z,82144.00
2018-08-12T08:10:30.974Z,71584.00
2018-08-12T08:11:30.978Z,72992.00
2018-08-12T08:12:31.003Z,76512.00
2018-08-12T08:13:31.015Z,75328.00
2018-08-12T08:14:31.022Z,74624.00
2018-08-12T08:15:31.036Z,75040.00
2018-08-12T08:16:31.046Z,76704.00
2018-08-12T08:17:31.067Z,77792.00
2018-08-12T08:18:31.083Z,77568.00
2018-08-12T08:19:31.123Z,72576.00
2018-08-12T08:20:31.132Z,66816.00
2018-08-12T08:21:31.125Z,69248.00
2018-08-12T08:22:31.137Z,66112.00
2018-08-12T08:23:31.150Z,66016.00
2018-08-12T08:24:31.162Z,64032.00
2018-08-12T08:25:31.257Z,65152.00
2018-08-12T08:26:31.191Z,62336.00
2018-08-12T08:27:31.203Z,62304.00
2018-08-12T08:28:31.272Z,65088.00
2018-08-12T08:29:31.295Z,64576.00
2018-08-12T08:30:31.246Z,64960.00
2018-08-12T08:31:31.281Z,63968.00
2018-08-12T08:32:31.283Z,64256.00
2018-08-12T08:33:31.296Z,62176.00
2018-08-12T08:34:31.302Z,59808.00
2018-08-12T08:35:31.328Z,63680.00
2018-08-12T08:36:31.335Z,61472.00
2018-08-12T08:37:31.354Z,64384.00
2018-08-12T08:38:31.374Z,61728.00
2018-08-12T08:39:31.454Z,55840.00
2018-08-12T08:40:31.400Z,55296.00
2018-08-12T08:41:31.417Z,56448.00
2018-08-12T08:42:31.436Z,56960.00
2018-08-12T08:43:31.453Z,55296.00
2018-08-12T08:44:31.467Z,57984.00
2018-08-12T08:45:31.484Z,57280.00
2018-08-12T08:46:31.497Z,56736.00
2018-08-12T08:47:31.519Z,56256.00
2018-08-12T08:48:31.533Z,54176.00
2018-08-12T08:49:31.595Z,58688.00
2018-08-12T08:50:31.571Z,59328.00
2018-08-12T08:51:31.578Z,59104.00
2018-08-12T08:52:31.601Z,57536.00
2018-08-12T08:53:31.612Z,55136.00
2018-08-12T08:54:31.627Z,56704.00
2018-08-12T08:55:31.676Z,58016.00
2018-08-12T08:56:31.661Z,54368.00
2018-08-12T08:57:31.678Z,54048.00
2018-08-12T08:58:31.724Z,53312.00
2018-08-12T08:59:31.733Z,54976.00
2018-08-12T09:00:31.732Z,56320.00
2018-08-12T09:01:31.819Z,55392.00
2018-08-12T09:02:31.766Z,56416.00
2018-08-12T09:03:31.781Z,59488.00
2018-08-12T09:04:31.804Z,57216.00
2018-08-12T09:05:31.836Z,55520.00
2018-08-12T09:06:31.855Z,53856.00
2018-08-12T09:07:31.854Z,53920.00
2018-08-12T09:08:32.238Z,52928.00
2018-08-12T09:09:31.963Z,52352.00
2018-08-12T09:10:32.077Z,51616.00
2018-08-12T09:11:31.954Z,52800.00
2018-08-12T09:12:31.940Z,53376.00
2018-08-12T09:13:31.980Z,53824.00
2018-08-12T09:14:32.106Z,54464.00
2018-08-12T09:15:31.989Z,53088.00
2018-08-12T09:16:32.009Z,55008.00
2018-08-12T09:17:32.030Z,55296.00
2018-08-12T09:18:32.045Z,52768.00
2018-08-12T09:19:32.064Z,54880.00
2018-08-12T09:20:32.080Z,55104.00
2018-08-12T09:21:32.096Z,54496.00
2018-08-12T09:22:32.115Z,53376.00
2018-08-12T09:23:32.155Z,52672.00
2018-08-12T09:24:32.152Z,54944.00
2018-08-12T09:25:32.217Z,53472.00
2018-08-12T09:26:32.186Z,52736.00
2018-08-12T09:27:32.205Z,54336.00
2018-08-12T09:28:32.281Z,52960.00
2018-08-12T09:29:32.259Z,53696.00
2018-08-12T09:30:32.260Z,54080.00
2018-08-12T09:31:32.301Z,53120.00
2018-08-12T09:32:32.300Z,53120.00
2018-08-12T09:33:32.306Z,52608.00
2018-08-12T09:34:32.348Z,51552.00
2018-08-12T09:35:32.349Z,50912.00
2018-08-12T09:36:32.387Z,50560.00
2018-08-12T09:37:32.389Z,49664.00
2018-08-12T09:38:32.406Z,51712.00
2018-08-12T09:39:32.430Z,52320.00
2018-08-12T09:40:32.455Z,51424.00
2018-08-12T09:41:32.467Z,51168.00
2018-08-12T09:42:32.481Z,51232.00
2018-08-12T09:43:32.496Z,53856.00
2018-08-12T09:44:32.513Z,52032.00
2018-08-12T09:45:32.531Z,54368.00
2018-08-12T09:46:32.555Z,55456.00
2018-08-12T09:47:32.565Z,52160.00
2018-08-12T09:48:32.591Z,54240.00
2018-08-12T09:49:32.617Z,53536.00
2018-08-12T09:50:32.619Z,54624.00
2018-08-12T09:51:32.692Z,55136.00
2018-08-12T09:52:32.656Z,56320.00
2018-08-12T09:53:32.676Z,58112.00
2018-08-12T09:54:32.693Z,56768.00
2018-08-12T09:55:32.709Z,53984.00
2018-08-12T09:56:32.726Z,49760.00
2018-08-12T09:57:32.749Z,49696.00
2018-08-12T09:58:32.863Z,49344.00
2018-08-12T09:59:32.787Z,52000.00
2018-08-12T10:00:32.801Z,53888.00
2018-08-12T10:01:32.819Z,54624.00
2018-08-12T10:02:32.842Z,56416.00
2018-08-12T10:03:32.941Z,58272.00
2018-08-12T10:04:32.980Z,56960.00
2018-08-12T10:05:32.984Z,56160.00
2018-08-12T10:06:32.954Z,56384.00
2018-08-12T10:07:33.038Z,57120.00
2018-08-12T10:08:32.971Z,57600.00
2018-08-12T10:09:33.011Z,55936.00
2018-08-12T10:10:32.978Z,54720.00
2018-08-12T10:11:32.990Z,54560.00
2018-08-12T10:12:33.026Z,55776.00
2018-08-12T10:13:33.042Z,58016.00
2018-08-12T10:14:33.046Z,55776.00
2018-08-12T10:15:33.181Z,53408.00
2018-08-12T10:16:33.094Z,52448.00
2018-08-12T10:17:33.103Z,52960.00
2018-08-12T10:18:33.119Z,54144.00
2018-08-12T10:19:33.151Z,56320.00
2018-08-12T10:20:33.166Z,56928.00
2018-08-12T10:21:33.179Z,54720.00
2018-08-12T10:22:33.236Z,52416.00
2018-08-12T10:23:33.218Z,53184.00
2018-08-12T10:24:33.248Z,54336.00
2018-08-12T10:25:33.269Z,56576.00
2018-08-12T10:26:33.268Z,55104.00
2018-08-12T10:27:33.295Z,53472.00
2018-08-12T10:28:33.310Z,53248.00
2018-08-12T10:29:33.391Z,55392.00
2018-08-12T10:30:33.354Z,57760.00
2018-08-12T10:31:33.360Z,57152.00
2018-08-12T10:32:33.376Z,55008.00
2018-08-12T10:33:33.394Z,54208.00
2018-08-12T10:34:33.425Z,55968.00
2018-08-12T10:35:33.462Z,57056.00
2018-08-12T10:36:33.449Z,57632.00
2018-08-12T10:37:33.473Z,56896.00
2018-08-12T10:38:33.544Z,56992.00
2018-08-12T10:39:33.582Z,57216.00
2018-08-12T10:40:33.530Z,57760.00
2018-08-12T10:41:33.547Z,56096.00
2018-08-12T10:42:33.567Z,53984.00
2018-08-12T10:43:33.613Z,55456.00
2018-08-12T10:44:33.633Z,56480.00
2018-08-12T10:45:33.619Z,56544.00
2018-08-12T10:46:33.652Z,55968.00
2018-08-12T10:47:33.655Z,56096.00
2018-08-12T10:48:33.683Z,55456.00
2018-08-12T10:49:33.691Z,54976.00
2018-08-12T10:50:33.738Z,56192.00
2018-08-12T10:51:33.731Z,58976.00
2018-08-12T10:52:33.761Z,58656.00
2018-08-12T10:53:33.777Z,59200.00
2018-08-12T10:54:33.786Z,60896.00
2018-08-12T10:55:33.803Z,62016.00
2018-08-12T10:56:33.825Z,59840.00
2018-08-12T10:57:33.877Z,57408.00
2018-08-12T10:58:33.909Z,57184.00
2018-08-12T10:59:33.924Z,57600.00
2018-08-12T11:00:33.965Z,58496.00
2018-08-12T11:01:33.935Z,58720.00
2018-08-12T11:02:33.936Z,57984.00
2018-08-12T11:03:33.956Z,57152.00
2018-08-12T11:04:33.979Z,58112.00
2018-08-12T11:05:33.996Z,59040.00
2018-08-12T11:06:34.014Z,58432.00
2018-08-12T11:07:34.124Z,58656.00
2018-08-12T11:08:34.086Z,59296.00
2018-08-12T11:09:34.090Z,62432.00
2018-08-12T11:10:34.093Z,61344.00
2018-08-12T11:11:34.107Z,62624.00
2018-08-12T11:12:34.185Z,63712.00
2018-08-12T11:13:34.143Z,63744.00
2018-08-12T11:14:34.170Z,61344.00
2018-08-12T11:15:34.274Z,60896.00
2018-08-12T11:16:34.241Z,60576.00
2018-08-12T11:17:34.220Z,59872.00
2018-08-12T11:18:34.242Z,59776.00
2018-08-12T11:19:34.260Z,58656.00
2018-08-12T11:20:34.378Z,59104.00
2018-08-12T11:21:34.290Z,59744.00
2018-08-12T11:22:35.187Z,58656.00
2018-08-12T11:23:34.325Z,60640.00
2018-08-12T11:24:34.338Z,60192.00
2018-08-12T11:25:34.369Z,61056.00
2018-08-12T11:26:34.380Z,61408.00
2018-08-12T11:27:34.414Z,61568.00
2018-08-12T11:28:34.489Z,62112.00
2018-08-12T11:29:34.437Z,62816.00
2018-08-12T11:30:34.456Z,65408.00
2018-08-12T11:31:34.477Z,67424.00
2018-08-12T11:32:34.498Z,66752.00
2018-08-12T11:33:34.510Z,65952.00
2018-08-12T11:34:34.525Z,62848.00
2018-08-12T11:35:34.548Z,58912.00
2018-08-12T11:36:34.632Z,57504.00
2018-08-12T11:37:34.585Z,57376.00
2018-08-12T11:38:34.618Z,60576.00
2018-08-12T11:39:34.619Z,62208.00
2018-08-12T11:40:34.648Z,61600.00
2018-08-12T11:41:34.652Z,60960.00
2018-08-12T11:42:34.664Z,62464.00
2018-08-12T11:43:34.691Z,62720.00
2018-08-12T11:44:34.712Z,61152.00
2018-08-12T11:45:34.725Z,59744.00
2018-08-12T11:46:34.759Z,58368.00
2018-08-12T11:47:34.850Z,59456.00
2018-08-12T11:48:34.783Z,61312.00
2018-08-12T11:49:34.797Z,60320.00
2018-08-12T11:50:34.818Z,58624.00
2018-08-12T11:51:34.836Z,57088.00
2018-08-12T11:52:34.853Z,56800.00
2018-08-12T11:53:34.877Z,58560.00
2018-08-12T11:54:34.892Z,60544.00
2018-08-12T11:55:34.919Z,61408.00
2018-08-12T11:56:34.921Z,61280.00
2018-08-12T11:57:34.940Z,59520.00
2018-08-12T11:58:34.981Z,58432.00
2018-08-12T11:59:35.063Z,60608.00
2018-08-12T12:00:34.983Z,62112.00
2018-08-12T12:01:35.016Z,61344.00
2018-08-12T12:02:35.036Z,59040.00
2018-08-12T12:03:35.050Z,57728.00
2018-08-12T12:04:35.098Z,55168.00
2018-08-12T12:05:35.084Z,53824.00
2018-08-12T12:06:35.107Z,54208.00
2018-08-12T12:07:35.121Z,53792.00
2018-08-12T12:08:35.159Z,55520.00
2018-08-12T12:09:35.171Z,60096.00
2018-08-12T12:10:35.187Z,62240.00
2018-08-12T12:11:35.197Z,61088.00
2018-08-12T12:12:35.212Z,60800.00
2018-08-12T12:13:35.269Z,61632.00
2018-08-12T12:14:35.252Z,60672.00
2018-08-12T12:15:35.265Z,61792.00
2018-08-12T12:16:35.283Z,63648.00
2018-08-12T12:17:35.880Z,63168.00
2018-08-12T12:18:35.322Z,63168.00
2018-08-12T12:19:35.334Z,63360.00
2018-08-12T12:20:35.437Z,61312.00
2018-08-12T12:21:35.375Z,58112.00
2018-08-12T12:22:35.413Z,57312.00
2018-08-12T12:23:35.407Z,56800.00
2018-08-12T12:24:35.430Z,57120.00
2018-08-12T12:25:35.554Z,55424.00
2018-08-12T12:26:35.525Z,56960.00
2018-08-12T12:27:35.514Z,58240.00
2018-08-12T12:28:35.559Z,57824.00
2018-08-12T12:29:35.512Z,57344.00
2018-08-12T12:30:35.547Z,55008.00
2018-08-12T12:31:35.546Z,54880.00
2018-08-12T12:32:35.589Z,56480.00
2018-08-12T12:33:35.589Z,35936.00
2018-08-12T12:34:35.597Z,9128.00
2018-08-12T12:35:36.231Z,6732.00
2018-08-12T12:36:36.154Z,6436.00
2018-08-12T12:37:35.649Z,6152.00
2018-08-12T12:38:35.661Z,6016.00
2018-08-12T12:39:35.681Z,5996.00
2018-08-12T12:40:35.688Z,5988.00
2018-08-12T12:41:35.700Z,5972.00
2018-08-12T12:42:35.713Z,5960.00
2018-08-12T12:43:35.764Z,5960.00
2018-08-12T12:44:35.749Z,5968.00
2018-08-12T12:45:35.750Z,5964.00
2018-08-12T12:46:35.776Z,5968.00
2018-08-12T12:47:35.769Z,5968.00
2018-08-12T12:48:35.792Z,5960.00
2018-08-12T12:49:35.872Z,5952.00
2018-08-12T12:50:35.818Z,5932.00
2018-08-12T12:51:35.825Z,5928.00
2018-08-12T12:52:35.819Z,5916.00
2018-08-12T12:53:35.922Z,5912.00
2018-08-12T12:54:35.899Z,5900.00
2018-08-12T12:55:35.847Z,5892.00
2018-08-12T12:56:35.852Z,5880.00
2018-08-12T12:57:35.866Z,5860.00
2018-08-12T12:58:35.900Z,5840.00
2018-08-12T12:59:35.877Z,5816.00
2018-08-12T13:00:35.892Z,5804.00
2018-08-12T13:01:35.890Z,5784.00
2018-08-12T13:02:35.899Z,5772.00
2018-08-12T13:03:35.902Z,5756.00
2018-08-12T13:04:35.910Z,5748.00
2018-08-12T13:05:35.937Z,5724.00
2018-08-12T13:06:35.942Z,5708.00
2018-08-12T13:07:35.931Z,5688.00
2018-08-12T13:08:35.936Z,5660.00
2018-08-12T13:09:35.942Z,5624.00
2018-08-12T13:10:35.947Z,5584.00
2018-08-12T13:11:35.956Z,5556.00
2018-08-12T13:12:36.076Z,5528.00
2018-08-12T13:13:35.975Z,5484.00
2018-08-12T13:14:36.006Z,5452.00
2018-08-12T13:15:36.048Z,5424.00
2018-08-12T13:16:35.984Z,5416.00
2018-08-12T13:17:35.989Z,5404.00
2018-08-12T13:18:35.995Z,5396.00
2018-08-12T13:19:35.999Z,5388.00
2018-08-12T13:20:36.010Z,5380.00
2018-08-12T13:21:36.094Z,5368.00
2018-08-12T13:22:36.039Z,5356.00
2018-08-12T13:23:36.817Z,5344.00
2018-08-12T13:24:36.049Z,5332.00
2018-08-12T13:25:36.034Z,5328.00
2018-08-12T13:26:36.163Z,5320.00
2018-08-12T13:27:36.048Z,5312.00
2018-08-12T13:28:36.066Z,5312.00
2018-08-12T13:29:36.076Z,5312.00
2018-08-12T13:30:36.058Z,5312.00
2018-08-12T13:31:36.062Z,5312.00
2018-08-12T13:32:36.072Z,5312.00
2018-08-12T13:33:36.071Z,5312.00
2018-08-12T13:34:36.083Z,5316.00
2018-08-12T13:35:36.079Z,5308.00
2018-08-12T13:36:36.085Z,5296.00
2018-08-12T13:37:36.111Z,5292.00
2018-08-12T13:38:36.104Z,5288.00
2018-08-12T13:39:36.107Z,5268.00
2018-08-12T13:40:36.119Z,5256.00
2018-08-12T13:41:36.120Z,5248.00
2018-08-12T13:42:36.140Z,5240.00
2018-08-12T13:43:36.201Z,5240.00
2018-08-12T13:44:36.150Z,5240.00
2018-08-12T13:45:36.142Z,5240.00
2018-08-12T13:46:36.163Z,5240.00
2018-08-12T13:47:36.157Z,5248.00
2018-08-12T13:48:36.161Z,5252.00
2018-08-12T13:49:36.162Z,5252.00